sensor_id;sensor_type;location;lat;lon;timestamp;temperature;humidity
63976;DHT22;50167;47.958;21.780;2023-07-29T00:01:35;26.03;60.87
63976;DHT22;50167;47.958;21.780;2023-07-29T00:04:02;26.15;60.65
63976;DHT22;50167;47.958;21.780;2023-07-29T00:06:28;26.15;60.50
63976;DHT22;50167;47.958;21.780;2023-07-29T00:08:56;26.15;60.43
63976;DHT22;50167;47.958;21.780;2023-07-29T00:11:24;26.14;60.40
63976;DHT22;50167;47.958;21.780;2023-07-29T00:13:50;26.12;60.44
63976;DHT22;50167;47.958;21.780;2023-07-29T00:16:18;26.14;60.49
63976;DHT22;50167;47.958;21.780;2023-07-29T00:18:46;26.17;60.30
63976;DHT22;50167;47.958;21.780;2023-07-29T00:21:13;26.17;60.32
63976;DHT22;50167;47.958;21.780;2023-07-29T00:23:39;26.05;60.51
63976;DHT22;50167;47.958;21.780;2023-07-29T00:26:05;26.05;60.61
63976;DHT22;50167;47.958;21.780;2023-07-29T00:28:32;26.04;60.58
63976;DHT22;50167;47.958;21.780;2023-07-29T00:31:07;26.05;60.44
63976;DHT22;50167;47.958;21.780;2023-07-29T00:33:33;26.08;59.78
63976;DHT22;50167;47.958;21.780;2023-07-29T00:36:00;26.09;60.22
63976;DHT22;50167;47.958;21.780;2023-07-29T00:38:29;26.07;60.40
63976;DHT22;50167;47.958;21.780;2023-07-29T00:40:57;26.08;60.33
63976;DHT22;50167;47.958;21.780;2023-07-29T00:43:25;26.08;60.27
63976;DHT22;50167;47.958;21.780;2023-07-29T00:45:51;26.09;60.06
63976;DHT22;50167;47.958;21.780;2023-07-29T00:48:18;26.07;59.98
63976;DHT22;50167;47.958;21.780;2023-07-29T00:50:45;26.04;60.06
63976;DHT22;50167;47.958;21.780;2023-07-29T00:53:11;25.94;59.91
63976;DHT22;50167;47.958;21.780;2023-07-29T00:55:37;25.84;60.06
63976;DHT22;50167;47.958;21.780;2023-07-29T00:58:04;25.80;60.27
63976;DHT22;50167;47.958;21.780;2023-07-29T01:00:30;25.66;60.49
63976;DHT22;50167;47.958;21.780;2023-07-29T01:02:56;25.62;60.59
63976;DHT22;50167;47.958;21.780;2023-07-29T01:05:27;25.56;60.77
63976;DHT22;50167;47.958;21.780;2023-07-29T01:07:59;25.50;61.21
63976;DHT22;50167;47.958;21.780;2023-07-29T01:11:29;25.45;60.98
63976;DHT22;50167;47.958;21.780;2023-07-29T01:16:14;25.35;61.09
63976;DHT22;50167;47.958;21.780;2023-07-29T01:18:39;25.30;61.20
63976;DHT22;50167;47.958;21.780;2023-07-29T01:21:08;25.32;60.99
63976;DHT22;50167;47.958;21.780;2023-07-29T01:23:36;25.35;60.99
63976;DHT22;50167;47.958;21.780;2023-07-29T01:26:03;25.35;60.87
63976;DHT22;50167;47.958;21.780;2023-07-29T01:28:30;25.32;60.86
63976;DHT22;50167;47.958;21.780;2023-07-29T01:31:20;25.29;61.17
63976;DHT22;50167;47.958;21.780;2023-07-29T01:33:53;25.29;60.93
63976;DHT22;50167;47.958;21.780;2023-07-29T01:36:21;25.30;61.03
63976;DHT22;50167;47.958;21.780;2023-07-29T01:38:49;25.29;61.04
63976;DHT22;50167;47.958;21.780;2023-07-29T01:41:17;25.30;60.88
63976;DHT22;50167;47.958;21.780;2023-07-29T01:43:45;25.25;60.95
63976;DHT22;50167;47.958;21.780;2023-07-29T01:46:14;25.23;60.89
63976;DHT22;50167;47.958;21.780;2023-07-29T01:48:40;25.17;60.95
63976;DHT22;50167;47.958;21.780;2023-07-29T01:51:07;25.15;60.93
63976;DHT22;50167;47.958;21.780;2023-07-29T01:53:33;25.22;60.89
63976;DHT22;50167;47.958;21.780;2023-07-29T01:55:59;25.25;60.85
63976;DHT22;50167;47.958;21.780;2023-07-29T01:58:25;25.25;60.78
63976;DHT22;50167;47.958;21.780;2023-07-29T02:00:52;25.25;60.81
63976;DHT22;50167;47.958;21.780;2023-07-29T02:03:18;25.21;60.56
63976;DHT22;50167;47.958;21.780;2023-07-29T02:05:44;25.15;60.89
63976;DHT22;50167;47.958;21.780;2023-07-29T02:08:11;25.25;60.70
63976;DHT22;50167;47.958;21.780;2023-07-29T02:10:37;25.30;60.58
63976;DHT22;50167;47.958;21.780;2023-07-29T02:13:04;25.30;60.42
63976;DHT22;50167;47.958;21.780;2023-07-29T02:15:30;25.30;60.40
63976;DHT22;50167;47.958;21.780;2023-07-29T02:17:56;25.38;60.41
63976;DHT22;50167;47.958;21.780;2023-07-29T02:20:24;25.40;60.09
63976;DHT22;50167;47.958;21.780;2023-07-29T02:22:50;25.42;59.88
63976;DHT22;50167;47.958;21.780;2023-07-29T02:25:17;25.40;59.86
63976;DHT22;50167;47.958;21.780;2023-07-29T02:27:43;25.40;59.61
63976;DHT22;50167;47.958;21.780;2023-07-29T02:30:11;25.46;59.68
63976;DHT22;50167;47.958;21.780;2023-07-29T02:32:38;25.46;59.66
63976;DHT22;50167;47.958;21.780;2023-07-29T02:35:05;25.46;59.57
63976;DHT22;50167;47.958;21.780;2023-07-29T02:37:31;25.52;59.44
63976;DHT22;50167;47.958;21.780;2023-07-29T02:40:01;25.04;59.37
63976;DHT22;50167;47.958;21.780;2023-07-29T02:42:27;24.05;61.23
63976;DHT22;50167;47.958;21.780;2023-07-29T02:44:53;23.16;63.69
63976;DHT22;50167;47.958;21.780;2023-07-29T02:47:20;23.12;65.53
63976;DHT22;50167;47.958;21.780;2023-07-29T02:49:46;23.75;64.72
63976;DHT22;50167;47.958;21.780;2023-07-29T02:52:12;24.08;63.42
63976;DHT22;50167;47.958;21.780;2023-07-29T02:54:38;24.25;62.94
63976;DHT22;50167;47.958;21.780;2023-07-29T02:57:04;24.40;62.55
63976;DHT22;50167;47.958;21.780;2023-07-29T02:59:31;24.54;62.31
63976;DHT22;50167;47.958;21.780;2023-07-29T03:01:57;24.66;61.77
63976;DHT22;50167;47.958;21.780;2023-07-29T03:04:23;24.73;61.63
63976;DHT22;50167;47.958;21.780;2023-07-29T03:06:49;24.84;61.56
63976;DHT22;50167;47.958;21.780;2023-07-29T03:09:15;24.94;61.18
63976;DHT22;50167;47.958;21.780;2023-07-29T03:11:41;24.98;60.98
63976;DHT22;50167;47.958;21.780;2023-07-29T03:14:08;25.02;60.76
63976;DHT22;50167;47.958;21.780;2023-07-29T03:16:34;25.07;60.66
63976;DHT22;50167;47.958;21.780;2023-07-29T03:19:00;25.11;60.44
63976;DHT22;50167;47.958;21.780;2023-07-29T03:21:26;25.18;60.18
63976;DHT22;50167;47.958;21.780;2023-07-29T03:23:52;25.12;60.03
63976;DHT22;50167;47.958;21.780;2023-07-29T03:26:19;25.11;60.13
63976;DHT22;50167;47.958;21.780;2023-07-29T03:28:45;25.08;60.15
63976;DHT22;50167;47.958;21.780;2023-07-29T03:31:11;25.09;60.19
63976;DHT22;50167;47.958;21.780;2023-07-29T03:33:38;25.11;60.05
63976;DHT22;50167;47.958;21.780;2023-07-29T03:36:04;25.09;60.04
63976;DHT22;50167;47.958;21.780;2023-07-29T03:38:30;25.07;60.32
63976;DHT22;50167;47.958;21.780;2023-07-29T03:40:58;25.07;60.27
63976;DHT22;50167;47.958;21.780;2023-07-29T03:43:25;25.08;60.42
63976;DHT22;50167;47.958;21.780;2023-07-29T03:45:51;25.15;60.40
63976;DHT22;50167;47.958;21.780;2023-07-29T03:48:17;25.21;60.32
63976;DHT22;50167;47.958;21.780;2023-07-29T03:50:43;25.22;60.31
63976;DHT22;50167;47.958;21.780;2023-07-29T03:53:09;25.29;60.26
63976;DHT22;50167;47.958;21.780;2023-07-29T03:55:35;25.36;60.11
63976;DHT22;50167;47.958;21.780;2023-07-29T03:58:02;25.43;59.71
63976;DHT22;50167;47.958;21.780;2023-07-29T04:00:28;25.42;59.64
63976;DHT22;50167;47.958;21.780;2023-07-29T04:02:54;25.43;59.68
63976;DHT22;50167;47.958;21.780;2023-07-29T04:05:20;25.52;59.67
63976;DHT22;50167;47.958;21.780;2023-07-29T04:07:47;25.53;59.64
63976;DHT22;50167;47.958;21.780;2023-07-29T04:10:13;25.52;59.66
63976;DHT22;50167;47.958;21.780;2023-07-29T04:12:39;25.52;59.70
63976;DHT22;50167;47.958;21.780;2023-07-29T04:15:07;25.50;59.90
63976;DHT22;50167;47.958;21.780;2023-07-29T04:17:33;25.52;59.78
63976;DHT22;50167;47.958;21.780;2023-07-29T04:19:59;25.50;60.01
63976;DHT22;50167;47.958;21.780;2023-07-29T04:22:25;25.53;60.02
63976;DHT22;50167;47.958;21.780;2023-07-29T04:24:51;25.59;60.00
63976;DHT22;50167;47.958;21.780;2023-07-29T04:27:18;25.66;59.91
63976;DHT22;50167;47.958;21.780;2023-07-29T04:29:44;25.69;60.03
63976;DHT22;50167;47.958;21.780;2023-07-29T04:32:10;25.69;59.90
63976;DHT22;50167;47.958;21.780;2023-07-29T04:34:36;25.76;59.89
63976;DHT22;50167;47.958;21.780;2023-07-29T04:37:03;25.77;59.54
63976;DHT22;50167;47.958;21.780;2023-07-29T04:39:29;25.87;59.51
63976;DHT22;50167;47.958;21.780;2023-07-29T04:41:55;25.55;59.58
63976;DHT22;50167;47.958;21.780;2023-07-29T04:44:23;24.73;61.56
63976;DHT22;50167;47.958;21.780;2023-07-29T04:46:49;24.06;63.65
63976;DHT22;50167;47.958;21.780;2023-07-29T04:49:15;24.39;64.73
63976;DHT22;50167;47.958;21.780;2023-07-29T04:51:41;25.14;62.77
63976;DHT22;50167;47.958;21.780;2023-07-29T04:54:07;25.49;61.62
63976;DHT22;50167;47.958;21.780;2023-07-29T04:56:33;25.75;60.74
63976;DHT22;50167;47.958;21.780;2023-07-29T04:58:59;25.84;60.50
63976;DHT22;50167;47.958;21.780;2023-07-29T05:01:25;25.90;60.55
63976;DHT22;50167;47.958;21.780;2023-07-29T05:03:51;26.01;60.51
63976;DHT22;50167;47.958;21.780;2023-07-29T05:06:17;26.12;60.46
63976;DHT22;50167;47.958;21.780;2023-07-29T05:08:43;26.32;60.18
63976;DHT22;50167;47.958;21.780;2023-07-29T05:11:09;26.53;59.27
63976;DHT22;50167;47.958;21.780;2023-07-29T05:13:36;26.25;59.32
63976;DHT22;50167;47.958;21.780;2023-07-29T05:16:03;25.60;61.21
63976;DHT22;50167;47.958;21.780;2023-07-29T05:18:29;25.08;62.84
63976;DHT22;50167;47.958;21.780;2023-07-29T05:20:56;25.36;63.48
63976;DHT22;50167;47.958;21.780;2023-07-29T05:23:22;26.11;61.72
63976;DHT22;50167;47.958;21.780;2023-07-29T05:25:48;26.59;60.24
63976;DHT22;50167;47.958;21.780;2023-07-29T05:28:14;26.76;59.71
63976;DHT22;50167;47.958;21.780;2023-07-29T05:30:40;26.86;59.32
63976;DHT22;50167;47.958;21.780;2023-07-29T05:33:06;26.53;59.88
63976;DHT22;50167;47.958;21.780;2023-07-29T05:35:35;25.83;61.77
63976;DHT22;50167;47.958;21.780;2023-07-29T05:38:02;25.23;63.37
63976;DHT22;50167;47.958;21.780;2023-07-29T05:40:30;25.60;64.17
63976;DHT22;50167;47.958;21.780;2023-07-29T05:42:56;26.34;62.33
63976;DHT22;50167;47.958;21.780;2023-07-29T05:45:23;26.76;60.86
63976;DHT22;50167;47.958;21.780;2023-07-29T05:47:49;26.97;60.27
63976;DHT22;50167;47.958;21.780;2023-07-29T05:50:15;27.18;59.82
63976;DHT22;50167;47.958;21.780;2023-07-29T05:52:41;27.34;59.11
63976;DHT22;50167;47.958;21.780;2023-07-29T05:55:08;27.09;58.85
63976;DHT22;50167;47.958;21.780;2023-07-29T05:57:34;26.38;60.09
63976;DHT22;50167;47.958;21.780;2023-07-29T06:00:00;25.88;61.94
63976;DHT22;50167;47.958;21.780;2023-07-29T06:02:26;25.52;63.10
63976;DHT22;50167;47.958;21.780;2023-07-29T06:04:52;25.87;63.56
63976;DHT22;50167;47.958;21.780;2023-07-29T06:07:19;26.73;60.96
63976;DHT22;50167;47.958;21.780;2023-07-29T06:09:46;27.25;59.15
63976;DHT22;50167;47.958;21.780;2023-07-29T06:12:12;27.06;58.69
63976;DHT22;50167;47.958;21.780;2023-07-29T06:14:38;26.42;59.98
63976;DHT22;50167;47.958;21.780;2023-07-29T06:17:06;25.93;61.00
63976;DHT22;50167;47.958;21.780;2023-07-29T06:19:33;25.56;62.61
63976;DHT22;50167;47.958;21.780;2023-07-29T06:21:59;26.05;62.71
63976;DHT22;50167;47.958;21.780;2023-07-29T06:24:27;26.86;60.78
63976;DHT22;50167;47.958;21.780;2023-07-29T06:26:53;27.32;59.40
63976;DHT22;50167;47.958;21.780;2023-07-29T06:29:19;27.15;58.31
63976;DHT22;50167;47.958;21.780;2023-07-29T06:31:45;26.53;59.17
63976;DHT22;50167;47.958;21.780;2023-07-29T06:34:12;26.00;61.37
63976;DHT22;50167;47.958;21.780;2023-07-29T06:36:41;25.65;62.40
63976;DHT22;50167;47.958;21.780;2023-07-29T06:39:07;26.17;62.88
63976;DHT22;50167;47.958;21.780;2023-07-29T06:41:33;27.07;60.76
63976;DHT22;50167;47.958;21.780;2023-07-29T06:43:59;27.71;59.13
63976;DHT22;50167;47.958;21.780;2023-07-29T06:46:25;27.75;57.78
63976;DHT22;50167;47.958;21.780;2023-07-29T06:48:52;27.31;58.58
63976;DHT22;50167;47.958;21.780;2023-07-29T06:51:18;27.06;59.51
63976;DHT22;50167;47.958;21.780;2023-07-29T06:53:45;26.96;60.07
63976;DHT22;50167;47.958;21.780;2023-07-29T06:56:11;26.91;60.12
63976;DHT22;50167;47.958;21.780;2023-07-29T06:58:37;26.89;61.41
63976;DHT22;50167;47.958;21.780;2023-07-29T07:01:03;26.78;60.77
63976;DHT22;50167;47.958;21.780;2023-07-29T07:03:29;26.64;60.39
63976;DHT22;50167;47.958;21.780;2023-07-29T07:05:55;26.51;61.39
63976;DHT22;50167;47.958;21.780;2023-07-29T07:08:22;26.34;62.24
63976;DHT22;50167;47.958;21.780;2023-07-29T07:10:48;26.15;62.04
63976;DHT22;50167;47.958;21.780;2023-07-29T07:13:23;26.08;62.70
63976;DHT22;50167;47.958;21.780;2023-07-29T07:15:49;26.87;61.88
63976;DHT22;50167;47.958;21.780;2023-07-29T07:18:15;27.96;58.70
63976;DHT22;50167;47.958;21.780;2023-07-29T07:20:42;28.38;56.68
63976;DHT22;50167;47.958;21.780;2023-07-29T07:23:08;28.14;56.64
63976;DHT22;50167;47.958;21.780;2023-07-29T07:25:42;27.90;57.16
63976;DHT22;50167;47.958;21.780;2023-07-29T07:28:11;27.61;57.31
63976;DHT22;50167;47.958;21.780;2023-07-29T07:30:44;27.32;57.67
63976;DHT22;50167;47.958;21.780;2023-07-29T07:37:46;26.63;59.13
63976;DHT22;50167;47.958;21.780;2023-07-29T07:40:12;26.46;59.48
63976;DHT22;50167;47.958;21.780;2023-07-29T07:42:38;26.39;60.14
63976;DHT22;50167;47.958;21.780;2023-07-29T07:45:05;26.45;60.46
63976;DHT22;50167;47.958;21.780;2023-07-29T07:47:31;26.45;60.63
63976;DHT22;50167;47.958;21.780;2023-07-29T07:49:57;26.39;60.20
63976;DHT22;50167;47.958;21.780;2023-07-29T07:52:24;26.35;60.73
63976;DHT22;50167;47.958;21.780;2023-07-29T07:54:52;26.43;61.23
63976;DHT22;50167;47.958;21.780;2023-07-29T07:57:21;26.55;61.09
63976;DHT22;50167;47.958;21.780;2023-07-29T07:59:47;26.64;60.27
63976;DHT22;50167;47.958;21.780;2023-07-29T08:02:13;26.69;59.70
63976;DHT22;50167;47.958;21.780;2023-07-29T08:04:40;26.74;59.54
63976;DHT22;50167;47.958;21.780;2023-07-29T08:07:18;26.89;58.98
63976;DHT22;50167;47.958;21.780;2023-07-29T08:09:44;26.97;58.00
63976;DHT22;50167;47.958;21.780;2023-07-29T08:12:10;26.99;57.63
63976;DHT22;50167;47.958;21.780;2023-07-29T08:14:36;27.00;57.23
63976;DHT22;50167;47.958;21.780;2023-07-29T08:17:03;27.03;57.00
63976;DHT22;50167;47.958;21.780;2023-07-29T08:19:29;27.00;56.86
63976;DHT22;50167;47.958;21.780;2023-07-29T08:25:56;26.93;57.18
63976;DHT22;50167;47.958;21.780;2023-07-29T08:28:24;26.93;57.16
63976;DHT22;50167;47.958;21.780;2023-07-29T08:30:51;26.87;57.38
63976;DHT22;50167;47.958;21.780;2023-07-29T08:36:41;26.97;56.96
63976;DHT22;50167;47.958;21.780;2023-07-29T08:39:07;27.06;56.39
63976;DHT22;50167;47.958;21.780;2023-07-29T08:48:43;27.44;55.88
63976;DHT22;50167;47.958;21.780;2023-07-29T08:51:11;27.45;55.59
63976;DHT22;50167;47.958;21.780;2023-07-29T08:53:38;27.52;56.10
63976;DHT22;50167;47.958;21.780;2023-07-29T08:56:15;27.57;56.27
63976;DHT22;50167;47.958;21.780;2023-07-29T08:58:43;27.62;56.08
63976;DHT22;50167;47.958;21.780;2023-07-29T09:01:09;27.72;55.33
63976;DHT22;50167;47.958;21.780;2023-07-29T09:03:36;27.82;55.62
63976;DHT22;50167;47.958;21.780;2023-07-29T09:06:02;27.96;55.29
63976;DHT22;50167;47.958;21.780;2023-07-29T09:08:29;28.04;54.20
63976;DHT22;50167;47.958;21.780;2023-07-29T09:10:56;28.12;54.37
63976;DHT22;50167;47.958;21.780;2023-07-29T09:13:22;28.23;53.88
63976;DHT22;50167;47.958;21.780;2023-07-29T09:22:58;28.62;54.39
63976;DHT22;50167;47.958;21.780;2023-07-29T09:25:30;28.79;52.99
63976;DHT22;50167;47.958;21.780;2023-07-29T09:28:00;28.91;52.55
63976;DHT22;50167;47.958;21.780;2023-07-29T09:30:27;28.95;52.53
63976;DHT22;50167;47.958;21.780;2023-07-29T09:32:57;28.96;52.61
63976;DHT22;50167;47.958;21.780;2023-07-29T09:35:28;29.00;52.77
63976;DHT22;50167;47.958;21.780;2023-07-29T09:37:54;28.99;52.78
63976;DHT22;50167;47.958;21.780;2023-07-29T09:40:20;29.02;53.30
63976;DHT22;50167;47.958;21.780;2023-07-29T09:42:51;29.06;53.75
63976;DHT22;50167;47.958;21.780;2023-07-29T09:45:26;29.23;53.17
63976;DHT22;50167;47.958;21.780;2023-07-29T09:47:54;29.38;53.09
63976;DHT22;50167;47.958;21.780;2023-07-29T09:50:26;29.54;53.24
63976;DHT22;50167;47.958;21.780;2023-07-29T09:52:55;29.63;53.19
63976;DHT22;50167;47.958;21.780;2023-07-29T09:55:23;29.69;53.24
63976;DHT22;50167;47.958;21.780;2023-07-29T09:58:00;29.67;51.70
63976;DHT22;50167;47.958;21.780;2023-07-29T10:00:31;29.65;52.90
63976;DHT22;50167;47.958;21.780;2023-07-29T10:02:58;29.69;52.84
63976;DHT22;50167;47.958;21.780;2023-07-29T10:05:28;29.77;52.21
63976;DHT22;50167;47.958;21.780;2023-07-29T10:07:56;29.81;51.56
63976;DHT22;50167;47.958;21.780;2023-07-29T10:14:31;29.65;52.03
63976;DHT22;50167;47.958;21.780;2023-07-29T10:16:57;29.69;52.87
63976;DHT22;50167;47.958;21.780;2023-07-29T10:19:25;29.81;51.23
63976;DHT22;50167;47.958;21.780;2023-07-29T10:21:52;29.85;49.80
63976;DHT22;50167;47.958;21.780;2023-07-29T10:24:24;29.83;50.91
63976;DHT22;50167;47.958;21.780;2023-07-29T10:27:00;29.79;49.96
63976;DHT22;50167;47.958;21.780;2023-07-29T10:29:32;29.95;50.52
63976;DHT22;50167;47.958;21.780;2023-07-29T10:32:05;30.02;49.44
63976;DHT22;50167;47.958;21.780;2023-07-29T10:38:40;30.42;47.74
63976;DHT22;50167;47.958;21.780;2023-07-29T10:41:06;30.50;48.00
63976;DHT22;50167;47.958;21.780;2023-07-29T10:43:35;30.64;47.14
63976;DHT22;50167;47.958;21.780;2023-07-29T10:46:18;30.74;47.48
63976;DHT22;50167;47.958;21.780;2023-07-29T10:48:56;30.81;47.78
63976;DHT22;50167;47.958;21.780;2023-07-29T10:51:35;30.84;46.93
63976;DHT22;50167;47.958;21.780;2023-07-29T10:54:13;30.95;46.94
63976;DHT22;50167;47.958;21.780;2023-07-29T10:56:43;31.09;47.38
63976;DHT22;50167;47.958;21.780;2023-07-29T11:01:59;31.46;45.51
63976;DHT22;50167;47.958;21.780;2023-07-29T11:04:31;31.43;45.73
63976;DHT22;50167;47.958;21.780;2023-07-29T11:10:03;31.33;46.12
63976;DHT22;50167;47.958;21.780;2023-07-29T11:12:39;31.24;45.77
63976;DHT22;50167;47.958;21.780;2023-07-29T11:15:17;31.14;46.34
63976;DHT22;50167;47.958;21.780;2023-07-29T11:20:25;30.91;46.28
63976;DHT22;50167;47.958;21.780;2023-07-29T11:22:54;30.95;45.70
63976;DHT22;50167;47.958;21.780;2023-07-29T11:25:22;30.84;45.60
63976;DHT22;50167;47.958;21.780;2023-07-29T11:27:55;30.78;46.59
63976;DHT22;50167;47.958;21.780;2023-07-29T11:30:24;30.90;46.55
63976;DHT22;50167;47.958;21.780;2023-07-29T11:32:53;31.08;46.21
63976;DHT22;50167;47.958;21.780;2023-07-29T11:35:21;31.18;45.14
63976;DHT22;50167;47.958;21.780;2023-07-29T12:01:36;34.36;38.95
63976;DHT22;50167;47.958;21.780;2023-07-29T12:04:02;33.64;40.04
63976;DHT22;50167;47.958;21.780;2023-07-29T12:06:29;33.06;41.35
63976;DHT22;50167;47.958;21.780;2023-07-29T12:08:57;32.61;42.29
63976;DHT22;50167;47.958;21.780;2023-07-29T12:11:24;32.31;43.86
63976;DHT22;50167;47.958;21.780;2023-07-29T12:13:53;32.22;44.18
63976;DHT22;50167;47.958;21.780;2023-07-29T12:16:19;32.20;43.47
63976;DHT22;50167;47.958;21.780;2023-07-29T12:18:46;32.11;43.83
63976;DHT22;50167;47.958;21.780;2023-07-29T12:21:14;31.86;44.30
63976;DHT22;50167;47.958;21.780;2023-07-29T12:23:40;31.63;44.80
63976;DHT22;50167;47.958;21.780;2023-07-29T12:26:07;31.50;45.44
63976;DHT22;50167;47.958;21.780;2023-07-29T12:28:33;31.33;45.02
63976;DHT22;50167;47.958;21.780;2023-07-29T12:31:00;31.24;45.30
63976;DHT22;50167;47.958;21.780;2023-07-29T12:33:33;31.12;45.10
63976;DHT22;50167;47.958;21.780;2023-07-29T12:36:01;31.02;45.46
63976;DHT22;50167;47.958;21.780;2023-07-29T12:38:29;30.92;47.05
63976;DHT22;50167;47.958;21.780;2023-07-29T12:40:55;30.82;47.24
63976;DHT22;50167;47.958;21.780;2023-07-29T12:43:22;30.75;46.27
63976;DHT22;50167;47.958;21.780;2023-07-29T12:45:52;30.80;47.01
63976;DHT22;50167;47.958;21.780;2023-07-29T12:48:18;31.15;47.32
63976;DHT22;50167;47.958;21.780;2023-07-29T12:50:44;31.83;45.95
63976;DHT22;50167;47.958;21.780;2023-07-29T12:53:11;32.69;43.97
63976;DHT22;50167;47.958;21.780;2023-07-29T12:55:37;33.53;42.16
63976;DHT22;50167;47.958;21.780;2023-07-29T12:58:04;34.43;40.39
63976;DHT22;50167;47.958;21.780;2023-07-29T13:00:30;35.14;39.11
63976;DHT22;50167;47.958;21.780;2023-07-29T13:02:57;35.66;38.18
63976;DHT22;50167;47.958;21.780;2023-07-29T13:05:23;36.23;36.91
63976;DHT22;50167;47.958;21.780;2023-07-29T13:07:49;36.66;36.88
63976;DHT22;50167;47.958;21.780;2023-07-29T13:10:22;36.83;35.54
63976;DHT22;50167;47.958;21.780;2023-07-29T13:12:48;36.81;36.06
63976;DHT22;50167;47.958;21.780;2023-07-29T13:15:14;36.72;35.51
63976;DHT22;50167;47.958;21.780;2023-07-29T13:17:40;36.49;34.13
63976;DHT22;50167;47.958;21.780;2023-07-29T13:20:08;36.12;35.48
63976;DHT22;50167;47.958;21.780;2023-07-29T13:22:34;35.81;36.36
63976;DHT22;50167;47.958;21.780;2023-07-29T13:25:01;35.52;35.49
63976;DHT22;50167;47.958;21.780;2023-07-29T13:27:27;35.12;35.51
63976;DHT22;50167;47.958;21.780;2023-07-29T13:29:54;34.61;36.22
63976;DHT22;50167;47.958;21.780;2023-07-29T13:32:20;34.08;36.22
63976;DHT22;50167;47.958;21.780;2023-07-29T13:34:46;33.43;36.46
63976;DHT22;50167;47.958;21.780;2023-07-29T13:37:13;32.91;37.87
63976;DHT22;50167;47.958;21.780;2023-07-29T13:39:39;32.57;38.76
63976;DHT22;50167;47.958;21.780;2023-07-29T13:42:06;32.43;39.16
63976;DHT22;50167;47.958;21.780;2023-07-29T13:44:33;32.55;39.34
63976;DHT22;50167;47.958;21.780;2023-07-29T13:46:59;32.83;39.49
63976;DHT22;50167;47.958;21.780;2023-07-29T13:49:25;33.36;39.24
63976;DHT22;50167;47.958;21.780;2023-07-29T13:51:57;33.87;37.74
63976;DHT22;50167;47.958;21.780;2023-07-29T13:54:23;33.89;37.72
63976;DHT22;50167;47.958;21.780;2023-07-29T13:56:49;33.67;37.83
63976;DHT22;50167;47.958;21.780;2023-07-29T13:59:16;33.48;37.96
63976;DHT22;50167;47.958;21.780;2023-07-29T14:01:42;33.44;38.45
63976;DHT22;50167;47.958;21.780;2023-07-29T14:04:08;33.50;38.75
63976;DHT22;50167;47.958;21.780;2023-07-29T14:06:35;33.63;38.23
63976;DHT22;50167;47.958;21.780;2023-07-29T14:09:01;34.06;38.00
63976;DHT22;50167;47.958;21.780;2023-07-29T14:11:28;35.12;35.27
63976;DHT22;50167;47.958;21.780;2023-07-29T14:13:54;36.21;34.62
63976;DHT22;50167;47.958;21.780;2023-07-29T14:16:20;37.23;33.35
63976;DHT22;50167;47.958;21.780;2023-07-29T14:18:46;38.18;32.04
63976;DHT22;50167;47.958;21.780;2023-07-29T14:21:12;39.05;31.21
63976;DHT22;50167;47.958;21.780;2023-07-29T14:23:39;39.73;30.06
63976;DHT22;50167;47.958;21.780;2023-07-29T14:26:05;39.77;30.89
63976;DHT22;50167;47.958;21.780;2023-07-29T14:28:31;39.11;31.39
63976;DHT22;50167;47.958;21.780;2023-07-29T14:30:57;38.33;30.44
63976;DHT22;50167;47.958;21.780;2023-07-29T14:33:24;37.43;31.26
63976;DHT22;50167;47.958;21.780;2023-07-29T14:35:50;36.49;33.08
63976;DHT22;50167;47.958;21.780;2023-07-29T14:38:16;35.70;34.36
63976;DHT22;50167;47.958;21.780;2023-07-29T14:40:43;34.94;36.14
63976;DHT22;50167;47.958;21.780;2023-07-29T14:43:09;34.12;38.06
63976;DHT22;50167;47.958;21.780;2023-07-29T14:45:35;33.28;39.59
63976;DHT22;50167;47.958;21.780;2023-07-29T14:48:01;32.49;41.50
63976;DHT22;50167;47.958;21.780;2023-07-29T14:50:27;31.81;42.84
63976;DHT22;50167;47.958;21.780;2023-07-29T14:52:53;31.28;44.83
63976;DHT22;50167;47.958;21.780;2023-07-29T14:55:19;30.87;45.92
63976;DHT22;50167;47.958;21.780;2023-07-29T14:57:46;30.57;47.22
63976;DHT22;50167;47.958;21.780;2023-07-29T15:00:13;30.23;47.46
63976;DHT22;50167;47.958;21.780;2023-07-29T15:05:51;29.53;48.63
63976;DHT22;50167;47.958;21.780;2023-07-29T15:08:17;29.23;48.38
63976;DHT22;50167;47.958;21.780;2023-07-29T15:10:49;28.91;48.78
63976;DHT22;50167;47.958;21.780;2023-07-29T15:13:16;28.58;49.82
63976;DHT22;50167;47.958;21.780;2023-07-29T15:15:42;28.38;50.37
63976;DHT22;50167;47.958;21.780;2023-07-29T15:18:08;28.48;51.06
63976;DHT22;50167;47.958;21.780;2023-07-29T15:20:34;28.43;51.28
63976;DHT22;50167;47.958;21.780;2023-07-29T15:23:01;28.31;51.76
63976;DHT22;50167;47.958;21.780;2023-07-29T15:25:27;28.14;52.69
63976;DHT22;50167;47.958;21.780;2023-07-29T15:27:53;27.99;52.89
63976;DHT22;50167;47.958;21.780;2023-07-29T15:30:20;27.83;53.93
63976;DHT22;50167;47.958;21.780;2023-07-29T15:32:46;27.64;54.11
63976;DHT22;50167;47.958;21.780;2023-07-29T15:35:12;27.45;54.35
63976;DHT22;50167;47.958;21.780;2023-07-29T15:37:39;27.32;54.31
63976;DHT22;50167;47.958;21.780;2023-07-29T15:40:07;27.18;55.37
63976;DHT22;50167;47.958;21.780;2023-07-29T15:42:34;27.22;55.33
63976;DHT22;50167;47.958;21.780;2023-07-29T15:45:00;27.22;56.01
63976;DHT22;50167;47.958;21.780;2023-07-29T15:47:26;27.15;55.75
63976;DHT22;50167;47.958;21.780;2023-07-29T15:49:52;27.10;56.09
63976;DHT22;50167;47.958;21.780;2023-07-29T15:52:18;27.00;56.38
63976;DHT22;50167;47.958;21.780;2023-07-29T15:54:45;26.91;56.69
63976;DHT22;50167;47.958;21.780;2023-07-29T15:57:11;26.82;56.85
63976;DHT22;50167;47.958;21.780;2023-07-29T15:59:38;26.72;57.12
63976;DHT22;50167;47.958;21.780;2023-07-29T16:02:04;26.66;57.11
63976;DHT22;50167;47.958;21.780;2023-07-29T16:04:31;26.58;57.41
63976;DHT22;50167;47.958;21.780;2023-07-29T16:06:59;26.58;57.32
63976;DHT22;50167;47.958;21.780;2023-07-29T16:09:25;26.53;57.30
63976;DHT22;50167;47.958;21.780;2023-07-29T16:11:52;26.48;56.74
63976;DHT22;50167;47.958;21.780;2023-07-29T16:14:18;26.38;57.34
63976;DHT22;50167;47.958;21.780;2023-07-29T16:16:45;26.25;57.63
63976;DHT22;50167;47.958;21.780;2023-07-29T16:19:12;26.22;58.14
63976;DHT22;50167;47.958;21.780;2023-07-29T16:21:38;26.14;58.44
63976;DHT22;50167;47.958;21.780;2023-07-29T16:24:04;26.07;58.36
63976;DHT22;50167;47.958;21.780;2023-07-29T16:26:30;25.94;59.37
63976;DHT22;50167;47.958;21.780;2023-07-29T16:28:56;25.83;60.30